Time;durP1;ratioP1;P1;durP2;ratioP2;P2;SDS_P1;SDS_P2;PMS_P1;PMS_P2;Temp;Humidity;BMP_temperature;BMP_pressure;BME280_temperature;BME280_humidity;BME280_pressure;Samples;Min_cycle;Max_cycle;Signal;HPM_P1;HPM_P2
2022/02/19 00:00:58;;;;;;;;;;;6.90;85.40;;;;;;6193416;23;19904;-90
2022/02/19 00:03:32;;;;;;;;;;;6.90;85.40;;;;;;6218444;23;19951;-89
2022/02/19 00:06:00;;;;;;;;;;;6.90;85.70;;;;;;6193620;23;19907;-90
2022/02/19 00:11:32;;;;;;;;;;;6.90;85.70;;;;;;6177498;23;19908;-88
2022/02/19 00:16:56;;;;;;;;;;;6.80;85.60;;;;;;6219477;23;19990;-89
2022/02/19 00:19:42;;;;;;;;;;;;;;;;;;;;;
2022/02/19 00:22:27;;;;;;;;;;;;;;;;;;;;;
2022/02/19 00:25:13;;;;;;;;;;;6.90;85.80;;;;;;6220381;23;19990;-88
2022/02/19 00:27:44;;;;;;;;;;;6.90;85.80;;;;;;6193514;23;19911;-88
2022/02/19 00:30:13;;;;;;;;;;;6.90;85.90;;;;;;6193560;23;19918;-88
2022/02/19 00:32:49;;;;;;;;;;;6.90;86.00;;;;;;6192386;23;19966;-90
2022/02/19 00:35:22;;;;;;;;;;;6.90;86.00;;;;;;6193103;23;19908;-88
2022/02/19 00:38:00;;;;;;;;;;;6.90;86.10;;;;;;6192630;23;19904;-89
2022/02/19 00:40:30;;;;;;;;;;;6.90;86.10;;;;;;6193714;23;19908;-88
2022/02/19 00:43:01;;;;;;;;;;;6.90;86.30;;;;;;6172378;23;19915;-89
2022/02/19 00:45:36;;;;;;;;;;;6.90;86.50;;;;;;6171646;23;19991;-91
2022/02/19 00:48:16;;;;;;;;;;;6.80;86.70;;;;;;6187629;23;19908;-89
2022/02/19 00:50:42;;;;;;;;;;;6.80;87.00;;;;;;6195206;23;19919;-92
2022/02/19 00:53:08;;;;;;;;;;;6.80;87.30;;;;;;6217973;23;19920;-90
2022/02/19 00:55:36;;;;;;;;;;;6.80;87.40;;;;;;6217560;23;19919;-91
2022/02/19 00:58:02;;;;;;;;;;;6.80;87.80;;;;;;6205048;23;19911;-89
2022/02/19 01:03:31;;;;;;;;;;;6.80;88.20;;;;;;6219151;23;19910;-88
2022/02/19 01:06:07;;;;;;;;;;;6.80;88.50;;;;;;6169300;23;19979;-89
2022/02/19 01:08:50;;;;;;;;;;;;;;;;;;;;;
2022/02/19 01:11:28;;;;;;;;;;;6.80;89.00;;;;;;6218616;23;19974;-88
2022/02/19 01:13:56;;;;;;;;;;;6.80;88.90;;;;;;6192572;23;19915;-89
2022/02/19 01:16:48;;;;;;;;;;;6.70;88.80;;;;;;6192532;23;20410;-89
2022/02/19 01:19:23;;;;;;;;;;;6.80;89.10;;;;;;6192613;23;19904;-89
2022/02/19 01:21:57;;;;;;;;;;;6.80;89.00;;;;;;6192669;23;19930;-89
2022/02/19 01:24:34;;;;;;;;;;;6.80;89.00;;;;;;6187549;23;19955;-90
2022/02/19 01:29:56;;;;;;;;;;;6.80;89.30;;;;;;6189596;23;19904;-91
2022/02/19 01:32:44;;;;;;;;;;;6.80;89.40;;;;;;6187970;23;19904;-89
2022/02/19 01:35:12;;;;;;;;;;;6.80;89.50;;;;;;6175040;23;19954;-89
2022/02/19 01:37:38;;;;;;;;;;;6.80;89.30;;;;;;6190074;23;19915;-89
2022/02/19 01:40:04;;;;;;;;;;;6.80;89.00;;;;;;6189612;23;19908;-91
2022/02/19 01:45:33;;;;;;;;;;;6.80;88.70;;;;;;6191477;23;19949;-89
2022/02/19 01:48:05;;;;;;;;;;;6.80;88.50;;;;;;6195348;23;19905;-88
2022/02/19 01:50:51;;;;;;;;;;;;;;;;;;;;;
2022/02/19 01:53:25;;;;;;;;;;;6.80;88.40;;;;;;6211864;23;19912;-88
2022/02/19 01:55:53;;;;;;;;;;;6.80;88.00;;;;;;6211538;23;19896;-90
2022/02/19 02:01:39;;;;;;;;;;;6.80;88.10;;;;;;6189945;23;19904;-89
2022/02/19 02:04:09;;;;;;;;;;;6.80;87.60;;;;;;6179293;23;19904;-89
2022/02/19 02:06:48;;;;;;;;;;;;;;;;;;;;;
2022/02/19 02:09:30;;;;;;;;;;;6.80;86.80;;;;;;6191591;23;19975;-89
2022/02/19 02:12:18;;;;;;;;;;;6.80;86.60;;;;;;6193436;23;19904;-88
2022/02/19 02:14:46;;;;;;;;;;;6.80;86.20;;;;;;6165039;23;19920;-90
2022/02/19 02:17:30;;;;;;;;;;;6.80;85.90;;;;;;6180261;23;19920;-89
2022/02/19 02:19:58;;;;;;;;;;;6.80;86.10;;;;;;6214059;23;19912;-89
2022/02/19 02:22:26;;;;;;;;;;;6.80;85.40;;;;;;6215889;23;19899;-89
2022/02/19 02:25:16;;;;;;;;;;;6.70;85.30;;;;;;6216544;23;19908;-89
2022/02/19 02:28:09;;;;;;;;;;;6.70;84.90;;;;;;6219681;23;19904;-88
2022/02/19 02:30:37;;;;;;;;;;;6.70;84.70;;;;;;6194597;23;19911;-89
2022/02/19 02:33:07;;;;;;;;;;;6.70;84.80;;;;;;6193806;23;19986;-89
2022/02/19 02:35:40;;;;;;;;;;;6.70;85.00;;;;;;6193307;23;19908;-89
2022/02/19 02:38:15;;;;;;;;;;;6.70;84.90;;;;;;6193311;23;19935;-89
2022/02/19 02:40:56;;;;;;;;;;;6.70;84.70;;;;;;6193962;23;19979;-90
2022/02/19 02:43:43;;;;;;;;;;;6.70;84.70;;;;;;6195872;23;19911;-90
2022/02/19 02:46:26;;;;;;;;;;;6.70;84.70;;;;;;6198584;23;19904;-90
2022/02/19 02:49:00;;;;;;;;;;;6.70;84.40;;;;;;6200137;23;19904;-89
2022/02/19 02:51:28;;;;;;;;;;;6.70;84.70;;;;;;6199917;23;19903;-89
2022/02/19 02:53:59;;;;;;;;;;;6.70;84.70;;;;;;6225415;23;20390;-89
2022/02/19 02:56:27;;;;;;;;;;;6.70;84.50;;;;;;6199127;23;19983;-90
2022/02/19 02:58:57;;;;;;;;;;;6.70;84.70;;;;;;6169322;23;19915;-88
2022/02/19 03:01:25;;;;;;;;;;;6.70;84.80;;;;;;6193634;23;19911;-89
2022/02/19 03:03:56;;;;;;;;;;;6.80;84.60;;;;;;6195557;23;19911;-88
2022/02/19 03:06:26;;;;;;;;;;;6.70;84.70;;;;;;6198717;23;19904;-89
2022/02/19 03:09:00;;;;;;;;;;;6.80;84.90;;;;;;6197277;23;19904;-89
2022/02/19 03:11:28;;;;;;;;;;;6.70;84.20;;;;;;6196283;23;19939;-89
2022/02/19 03:14:10;;;;;;;;;;;;;;;;;;;;;
2022/02/19 03:16:46;;;;;;;;;;;;;;;;;;;;;
2022/02/19 03:19:17;;;;;;;;;;;6.70;84.50;;;;;;6220646;23;19952;-88
2022/02/19 03:21:42;;;;;;;;;;;6.70;84.80;;;;;;6194329;23;19930;-89
2022/02/19 03:24:32;;;;;;;;;;;6.70;84.50;;;;;;6193168;23;19919;-89
2022/02/19 03:27:06;;;;;;;;;;;6.70;84.70;;;;;;6218790;23;19911;-90
2022/02/19 03:29:42;;;;;;;;;;;6.70;84.90;;;;;;6170201;23;19907;-90
2022/02/19 03:32:32;;;;;;;;;;;6.70;85.30;;;;;;6169076;23;19919;-88
2022/02/19 03:34:59;;;;;;;;;;;6.70;85.50;;;;;;6219347;23;20380;-89
2022/02/19 03:37:40;;;;;;;;;;;6.70;85.50;;;;;;6193637;23;19939;-90
2022/02/19 03:40:06;;;;;;;;;;;6.70;85.60;;;;;;6193346;23;20330;-89
2022/02/19 03:42:45;;;;;;;;;;;6.70;85.90;;;;;;6194181;23;19904;-89
2022/02/19 03:45:11;;;;;;;;;;;6.70;86.00;;;;;;6208681;23;19908;-89
2022/02/19 03:47:48;;;;;;;;;;;6.70;85.80;;;;;;6219235;23;19892;-89
2022/02/19 03:50:19;;;;;;;;;;;6.70;85.90;;;;;;6218664;23;19958;-90
2022/02/19 03:53:03;;;;;;;;;;;6.70;86.00;;;;;;6191751;23;19946;-89
2022/02/19 03:55:36;;;;;;;;;;;6.70;85.90;;;;;;6168927;23;19946;-89
2022/02/19 03:58:04;;;;;;;;;;;6.70;86.00;;;;;;6219462;23;19986;-89
2022/02/19 04:00:40;;;;;;;;;;;6.60;86.10;;;;;;6192975;23;19950;-88
2022/02/19 04:03:10;;;;;;;;;;;6.60;85.70;;;;;;6192862;23;19904;-90
2022/02/19 04:05:49;;;;;;;;;;;6.60;85.80;;;;;;6192743;23;19904;-89
2022/02/19 04:08:44;;;;;;;;;;;;;;;;;;;;;
2022/02/19 04:11:15;;;;;;;;;;;6.60;85.60;;;;;;6204439;23;19978;-89
2022/02/19 04:13:45;;;;;;;;;;;6.60;86.10;;;;;;6192450;23;19908;-89
2022/02/19 04:16:14;;;;;;;;;;;6.60;86.10;;;;;;6193315;23;19915;-88
2022/02/19 04:18:57;;;;;;;;;;;;;;;;;;;;;
2022/02/19 04:24:14;;;;;;;;;;;6.60;86.10;;;;;;6219692;23;19920;-89
2022/02/19 04:26:42;;;;;;;;;;;6.60;85.60;;;;;;6193427;23;19908;-88
2022/02/19 04:29:10;;;;;;;;;;;6.60;85.50;;;;;;6167100;23;19915;-89
2022/02/19 04:31:43;;;;;;;;;;;6.60;85.50;;;;;;6168407;23;19908;-88
2022/02/19 04:34:23;;;;;;;;;;;6.60;85.40;;;;;;6192918;23;19912;-89
2022/02/19 04:37:03;;;;;;;;;;;6.60;85.50;;;;;;6192736;23;19908;-88
2022/02/19 04:39:47;;;;;;;;;;;;;;;;;;;;;
2022/02/19 04:42:15;;;;;;;;;;;6.60;85.40;;;;;;6207294;23;19923;-90
2022/02/19 04:44:46;;;;;;;;;;;6.60;85.40;;;;;;6216409;23;19914;-89
2022/02/19 04:50:40;;;;;;;;;;;6.70;85.50;;;;;;6214772;23;19911;-89
2022/02/19 04:53:28;;;;;;;;;;;6.60;85.00;;;;;;6219962;23;19912;-89
2022/02/19 04:55:59;;;;;;;;;;;6.60;85.20;;;;;;6192798;23;19908;-89
2022/02/19 04:58:30;;;;;;;;;;;6.60;85.20;;;;;;6191746;23;19904;-89
2022/02/19 05:01:06;;;;;;;;;;;;;;;;;;;;;
2022/02/19 05:03:38;;;;;;;;;;;6.60;85.20;;;;;;6219225;23;20410;-88
2022/02/19 05:06:27;;;;;;;;;;;6.60;85.50;;;;;;6192176;23;19904;-91
2022/02/19 05:09:17;;;;;;;;;;;6.60;84.90;;;;;;6197339;23;20318;-88
2022/02/19 05:11:55;;;;;;;;;;;6.60;84.90;;;;;;6198329;23;19920;-89
2022/02/19 05:14:46;;;;;;;;;;;6.60;84.60;;;;;;6219567;23;19923;-90
2022/02/19 05:20:35;;;;;;;;;;;6.60;84.70;;;;;;6226529;23;19905;-89
2022/02/19 05:23:08;;;;;;;;;;;6.60;84.70;;;;;;6195416;23;19904;-89
2022/02/19 05:25:40;;;;;;;;;;;6.60;84.60;;;;;;6169242;23;19920;-89
2022/02/19 05:28:18;;;;;;;;;;;6.60;84.70;;;;;;6194513;23;19911;-89
2022/02/19 05:30:44;;;;;;;;;;;6.60;84.80;;;;;;6171981;23;19908;-88
2022/02/19 05:33:10;;;;;;;;;;;6.60;84.90;;;;;;6193491;23;19911;-91
2022/02/19 05:35:40;;;;;;;;;;;6.60;85.70;;;;;;6193764;23;20238;-89
2022/02/19 05:38:06;;;;;;;;;;;6.60;85.40;;;;;;6169220;23;19912;-90
2022/02/19 05:40:32;;;;;;;;;;;6.60;85.50;;;;;;6194491;23;19918;-89
2022/02/19 05:43:04;;;;;;;;;;;6.60;85.70;;;;;;6220768;23;20314;-89
2022/02/19 05:45:35;;;;;;;;;;;6.60;86.00;;;;;;6193492;23;19911;-89
2022/02/19 05:48:19;;;;;;;;;;;6.60;85.90;;;;;;6170769;23;20368;-89
2022/02/19 05:50:54;;;;;;;;;;;6.60;85.90;;;;;;6194480;23;19904;-89
2022/02/19 05:53:22;;;;;;;;;;;6.50;85.60;;;;;;6170506;23;19919;-89
2022/02/19 05:55:50;;;;;;;;;;;6.50;85.90;;;;;;6194550;23;19912;-90
2022/02/19 05:58:16;;;;;;;;;;;6.50;85.60;;;;;;6194385;23;20333;-90
2022/02/19 06:00:54;;;;;;;;;;;;;;;;;;;;;
2022/02/19 06:03:38;;;;;;;;;;;;;;;;;;;;;
2022/02/19 06:06:14;;;;;;;;;;;6.60;85.50;;;;;;6197719;23;19978;-90
2022/02/19 06:09:10;;;;;;;;;;;;;;;;;;;;;
2022/02/19 06:11:46;;;;;;;;;;;6.60;85.70;;;;;;6220071;23;19983;-90
2022/02/19 06:14:16;;;;;;;;;;;6.60;85.80;;;;;;6193833;23;19908;-89
2022/02/19 06:16:45;;;;;;;;;;;6.60;85.90;;;;;;6194272;23;19955;-89
2022/02/19 06:19:15;;;;;;;;;;;6.60;85.80;;;;;;6194702;23;19904;-88
2022/02/19 06:21:43;;;;;;;;;;;6.60;85.80;;;;;;6169428;23;19914;-88
2022/02/19 06:24:14;;;;;;;;;;;6.60;85.90;;;;;;6193363;23;19923;-90
2022/02/19 06:26:53;;;;;;;;;;;;;;;;;;;;;
2022/02/19 06:29:45;;;;;;;;;;;6.60;85.70;;;;;;6220923;23;19978;-89
2022/02/19 06:32:28;;;;;;;;;;;6.60;85.80;;;;;;6172680;23;19954;-91
2022/02/19 06:37:45;;;;;;;;;;;6.60;86.30;;;;;;6220473;23;19990;-89
2022/02/19 06:43:02;;;;;;;;;;;6.70;86.50;;;;;;6245546;23;19941;-89
2022/02/19 06:45:38;;;;;;;;;;;6.60;86.40;;;;;;6193442;23;19908;-91
2022/02/19 06:48:13;;;;;;;;;;;6.60;86.40;;;;;;6193193;23;19908;-89
2022/02/19 06:51:00;;;;;;;;;;;6.60;86.40;;;;;;6195319;23;19904;-89
2022/02/19 06:53:47;;;;;;;;;;;6.60;86.50;;;;;;6219213;23;19908;-89
2022/02/19 06:56:34;;;;;;;;;;;6.60;86.40;;;;;;6180952;23;19908;-92
2022/02/19 06:59:01;;;;;;;;;;;6.60;86.50;;;;;;6220068;23;19903;-89
2022/02/19 07:01:37;;;;;;;;;;;6.60;86.60;;;;;;6168548;23;19908;-91
2022/02/19 07:04:05;;;;;;;;;;;6.60;86.90;;;;;;6169663;23;19908;-90
2022/02/19 07:06:37;;;;;;;;;;;6.60;87.00;;;;;;6194659;23;19908;-90
2022/02/19 07:09:08;;;;;;;;;;;6.60;87.00;;;;;;6193802;23;19911;-89
2022/02/19 07:11:34;;;;;;;;;;;6.60;87.30;;;;;;6193625;23;19911;-88
2022/02/19 07:14:02;;;;;;;;;;;6.70;87.30;;;;;;6193429;23;19907;-88
2022/02/19 07:16:30;;;;;;;;;;;6.70;87.40;;;;;;6192997;23;19995;-89
2022/02/19 07:19:07;;;;;;;;;;;6.60;87.20;;;;;;6168502;23;19958;-91
2022/02/19 07:24:51;;;;;;;;;;;6.70;87.30;;;;;;6182489;23;20298;-91
2022/02/19 07:27:37;;;;;;;;;;;6.70;87.40;;;;;;6177271;23;19931;-90
2022/02/19 07:33:02;;;;;;;;;;;6.70;87.60;;;;;;6182728;23;20241;-90
2022/02/19 07:35:34;;;;;;;;;;;6.70;87.70;;;;;;6212666;23;19922;-91
2022/02/19 07:38:02;;;;;;;;;;;6.70;87.80;;;;;;6216755;23;19929;-90
2022/02/19 07:40:51;;;;;;;;;;;6.70;87.70;;;;;;6215886;23;19908;-91
2022/02/19 07:43:23;;;;;;;;;;;6.70;87.70;;;;;;6186955;23;19936;-88
2022/02/19 07:46:06;;;;;;;;;;;6.70;87.70;;;;;;6194264;23;19950;-92
2022/02/19 08:00:36;;;;;;;;;;;6.80;87.20;;;;;;6197376;23;19915;-89
2022/02/19 08:03:28;;;;;;;;;;;;;;;;;;;;;
2022/02/19 08:06:32;;;;;;;;;;;;;;;;;;;;;
2022/02/19 08:08:57;;;;;;;;;;;6.80;87.50;;;;;;6218807;23;19904;-91
2022/02/19 08:14:56;;;;;;;;;;;6.80;87.70;;;;;;6203517;23;19904;-89
2022/02/19 08:17:45;;;;;;;;;;;;;;;;;;;;;
2022/02/19 08:20:41;;;;;;;;;;;6.90;87.80;;;;;;6222674;23;19942;-89
2022/02/19 08:23:29;;;;;;;;;;;6.90;88.00;;;;;;6194109;23;19904;-90
2022/02/19 08:26:08;;;;;;;;;;;;;;;;;;;;;
2022/02/19 08:28:36;;;;;;;;;;;6.90;88.10;;;;;;6072083;23;19984;-91
2022/02/19 08:34:41;;;;;;;;;;;6.90;88.50;;;;;;6146752;23;19923;-92
2022/02/19 08:37:11;;;;;;;;;;;7.00;88.70;;;;;;6187596;23;19911;-90
2022/02/19 08:42:28;;;;;;;;;;;7.00;88.10;;;;;;6188361;23;19908;-90
2022/02/19 08:44:59;;;;;;;;;;;7.00;88.00;;;;;;6187118;23;19905;-93
2022/02/19 08:47:33;;;;;;;;;;;7.00;88.00;;;;;;6188086;23;19928;-91
2022/02/19 08:50:26;;;;;;;;;;;7.00;88.00;;;;;;6164538;23;19951;-94
2022/02/19 08:52:52;;;;;;;;;;;7.10;87.80;;;;;;6119604;23;19915;-90
2022/02/19 08:55:46;;;;;;;;;;;7.00;87.70;;;;;;6186830;23;19909;-91
2022/02/19 08:58:12;;;;;;;;;;;7.10;87.90;;;;;;6188413;23;19904;-90
2022/02/19 09:03:47;;;;;;;;;;;7.10;88.00;;;;;;6107769;23;19909;-92
2022/02/19 09:06:28;;;;;;;;;;;;;;;;;;;;;
2022/02/19 09:12:33;;;;;;;;;;;;;;;;;;;;;
2022/02/19 09:15:30;;;;;;;;;;;7.30;88.40;;;;;;6098598;23;19988;-94
2022/02/19 09:18:18;;;;;;;;;;;7.30;88.10;;;;;;6188406;23;19904;-95
2022/02/19 09:21:33;;;;;;;;;;;7.30;88.10;;;;;;6188205;23;19912;-95
2022/02/19 09:24:27;;;;;;;;;;;7.30;88.10;;;;;;6149382;23;19912;-94
2022/02/19 09:27:21;;;;;;;;;;;7.30;88.30;;;;;;6165494;23;20008;-93
2022/02/19 09:30:10;;;;;;;;;;;;;;;;;;;;;
2022/02/19 09:33:02;;;;;;;;;;;7.40;88.40;;;;;;6166803;23;19935;-93
2022/02/19 09:35:43;;;;;;;;;;;7.40;88.20;;;;;;6064949;23;19910;-94
2022/02/19 09:41:17;;;;;;;;;;;7.60;88.30;;;;;;6166021;23;19900;-92
2022/02/19 09:46:44;;;;;;;;;;;7.60;87.50;;;;;;6182119;23;19908;-93
2022/02/19 09:49:36;;;;;;;;;;;7.60;87.60;;;;;;6179899;23;19904;-93
2022/02/19 09:52:17;;;;;;;;;;;7.60;87.80;;;;;;6163682;23;19904;-92
2022/02/19 09:55:22;;;;;;;;;;;;;;;;;;;;;
2022/02/19 09:58:00;;;;;;;;;;;;;;;;;;;;;
2022/02/19 10:01:16;;;;;;;;;;;7.70;87.10;;;;;;6167482;23;19936;-91
2022/02/19 10:07:13;;;;;;;;;;;7.70;86.50;;;;;;6149789;23;20286;-95
2022/02/19 10:13:00;;;;;;;;;;;;;;;;;;;;;
2022/02/19 10:15:56;;;;;;;;;;;;;;;;;;;;;
2022/02/19 10:21:48;;;;;;;;;;;;;;;;;;;;;
2022/02/19 10:24:44;;;;;;;;;;;7.90;86.00;;;;;;6191908;23;19943;-91
2022/02/19 10:27:28;;;;;;;;;;;;;;;;;;;;;
2022/02/19 10:29:55;;;;;;;;;;;8.00;86.30;;;;;;6178911;23;19939;-92
2022/02/19 10:35:33;;;;;;;;;;;8.20;86.90;;;;;;6202608;23;19912;-89
2022/02/19 10:38:18;;;;;;;;;;;;;;;;;;;;;
2022/02/19 10:40:56;;;;;;;;;;;8.20;86.70;;;;;;6201207;23;20231;-91
2022/02/19 10:43:49;;;;;;;;;;;;;;;;;;;;;
2022/02/19 10:46:35;;;;;;;;;;;;;;;;;;;;;
2022/02/19 10:49:51;;;;;;;;;;;;;;;;;;;;;
2022/02/19 10:52:36;;;;;;;;;;;8.40;86.60;;;;;;6180478;23;19982;-93
2022/02/19 10:55:18;;;;;;;;;;;8.50;86.40;;;;;;6132658;23;19913;-92
2022/02/19 10:57:59;;;;;;;;;;;;;;;;;;;;;
2022/02/19 11:00:51;;;;;;;;;;;8.70;86.30;;;;;;6167087;23;20378;-93
2022/02/19 11:03:28;;;;;;;;;;;8.80;86.00;;;;;;6148240;23;19935;-91
2022/02/19 11:06:07;;;;;;;;;;;8.70;84.80;;;;;;6163969;23;19911;-92
2022/02/19 11:09:00;;;;;;;;;;;8.70;85.00;;;;;;6139559;23;19908;-92
2022/02/19 11:11:42;;;;;;;;;;;8.70;84.40;;;;;;6177603;23;19912;-92
2022/02/19 11:17:20;;;;;;;;;;;8.70;84.10;;;;;;6198836;23;19909;-93
2022/02/19 11:19:51;;;;;;;;;;;8.70;84.30;;;;;;6183183;23;20374;-90
2022/02/19 11:22:39;;;;;;;;;;;8.70;84.10;;;;;;6164256;23;19924;-91
2022/02/19 11:25:06;;;;;;;;;;;8.70;83.30;;;;;;6188268;23;19916;-95
2022/02/19 11:27:44;;;;;;;;;;;8.70;83.60;;;;;;6163834;23;19904;-92
2022/02/19 11:30:15;;;;;;;;;;;8.70;84.00;;;;;;6163151;23;19959;-93
2022/02/19 11:35:36;;;;;;;;;;;8.80;83.10;;;;;;6168196;23;19908;-93
2022/02/19 11:38:32;;;;;;;;;;;8.80;82.60;;;;;;6163426;23;19939;-94
2022/02/19 11:41:21;;;;;;;;;;;8.70;82.60;;;;;;6132486;23;20307;-93
2022/02/19 11:43:50;;;;;;;;;;;8.80;82.70;;;;;;6161766;23;20223;-93
2022/02/19 11:46:15;;;;;;;;;;;8.80;82.80;;;;;;6138970;23;19954;-93
2022/02/19 11:52:26;;;;;;;;;;;;;;;;;;;;;
2022/02/19 11:58:24;;;;;;;;;;;9.10;81.90;;;;;;6189007;23;19964;-93
2022/02/19 12:00:59;;;;;;;;;;;9.10;81.60;;;;;;6163358;23;20299;-95
2022/02/19 12:03:47;;;;;;;;;;;9.20;81.80;;;;;;6160342;23;19911;-94
2022/02/19 12:06:26;;;;;;;;;;;;;;;;;;;;;
2022/02/19 12:09:41;;;;;;;;;;;;;;;;;;;;;
2022/02/19 12:20:59;;;;;;;;;;;;;;;;;;;;;
2022/02/19 12:23:58;;;;;;;;;;;9.20;81.20;;;;;;6198055;23;19931;-94
2022/02/19 12:32:40;;;;;;;;;;;;;;;;;;;;;
2022/02/19 12:40:44;;;;;;;;;;;9.30;79.80;;;;;;6180864;23;20327;-95
2022/02/19 12:44:01;;;;;;;;;;;;;;;;;;;;;
2022/02/19 12:46:55;;;;;;;;;;;;;;;;;;;;;
2022/02/19 12:52:30;;;;;;;;;;;;;;;;;;;;;
2022/02/19 12:59:01;;;;;;;;;;;;;;;;;;;;;
2022/02/19 13:13:51;;;;;;;;;;;;;;;;;;;;;
2022/02/19 13:20:27;;;;;;;;;;;;;;;;;;;;;
2022/02/19 13:23:12;;;;;;;;;;;9.50;77.40;;;;;;6056439;23;19906;-94
2022/02/19 13:25:53;;;;;;;;;;;9.60;76.90;;;;;;6037975;23;19914;-94
2022/02/19 13:28:49;;;;;;;;;;;9.60;76.90;;;;;;6057825;23;19910;-93
2022/02/19 13:31:37;;;;;;;;;;;9.60;76.60;;;;;;5950709;24;19914;-93
2022/02/19 13:34:39;;;;;;;;;;;9.60;76.20;;;;;;6051980;23;19929;-93
2022/02/19 13:37:23;;;;;;;;;;;9.50;76.50;;;;;;6041253;23;19938;-94
2022/02/19 13:40:00;;;;;;;;;;;9.50;76.50;;;;;;5996515;23;19910;-94
2022/02/19 13:45:52;;;;;;;;;;;;;;;;;;;;;
2022/02/19 13:51:49;;;;;;;;;;;;;;;;;;;;;
2022/02/19 13:54:44;;;;;;;;;;;9.40;76.30;;;;;;6164824;23;20348;-95
2022/02/19 13:57:36;;;;;;;;;;;9.40;76.00;;;;;;6126310;23;19909;-92
2022/02/19 14:00:11;;;;;;;;;;;;;;;;;;;;;
2022/02/19 14:02:38;;;;;;;;;;;9.40;76.30;;;;;;6161266;23;19945;-92
2022/02/19 14:05:05;;;;;;;;;;;9.40;76.30;;;;;;6160651;23;19920;-93
2022/02/19 14:07:51;;;;;;;;;;;9.40;76.60;;;;;;6135206;23;19911;-94
2022/02/19 14:10:25;;;;;;;;;;;9.40;76.70;;;;;;6136057;23;19905;-91
2022/02/19 14:13:03;;;;;;;;;;;;;;;;;;;;;
2022/02/19 14:15:39;;;;;;;;;;;9.30;75.90;;;;;;6162767;23;19944;-91
2022/02/19 14:18:25;;;;;;;;;;;9.30;76.30;;;;;;6149715;23;19900;-93
2022/02/19 14:20:50;;;;;;;;;;;9.30;76.50;;;;;;6146218;23;20150;-91
2022/02/19 14:23:28;;;;;;;;;;;9.40;76.50;;;;;;6180152;23;19937;-93
2022/02/19 14:25:57;;;;;;;;;;;9.30;76.30;;;;;;6152233;23;19932;-93
2022/02/19 14:28:28;;;;;;;;;;;9.30;76.30;;;;;;6137249;23;19905;-93
2022/02/19 14:31:07;;;;;;;;;;;;;;;;;;;;;
2022/02/19 14:33:38;;;;;;;;;;;9.30;76.60;;;;;;6160583;23;20407;-93
2022/02/19 14:36:29;;;;;;;;;;;9.30;76.50;;;;;;6134837;23;19912;-91
2022/02/19 14:38:57;;;;;;;;;;;9.30;76.80;;;;;;6164464;23;19916;-92
2022/02/19 14:41:23;;;;;;;;;;;9.30;77.00;;;;;;6164364;23;19904;-90
2022/02/19 14:43:51;;;;;;;;;;;9.30;76.30;;;;;;6163512;23;19904;-90
2022/02/19 14:46:19;;;;;;;;;;;9.30;76.30;;;;;;6163962;23;19929;-92
2022/02/19 14:48:58;;;;;;;;;;;9.30;76.40;;;;;;6139113;23;19948;-89
2022/02/19 14:51:23;;;;;;;;;;;9.30;76.60;;;;;;6163637;23;20342;-89
2022/02/19 14:53:49;;;;;;;;;;;9.30;76.70;;;;;;6138749;23;19916;-90
2022/02/19 14:59:01;;;;;;;;;;;9.30;75.70;;;;;;6190092;23;19904;-90
2022/02/19 15:01:30;;;;;;;;;;;9.30;75.40;;;;;;6164017;23;19911;-90
2022/02/19 15:04:02;;;;;;;;;;;9.20;75.70;;;;;;6163941;23;19911;-89
2022/02/19 15:06:30;;;;;;;;;;;9.20;76.10;;;;;;6162942;23;20275;-87
2022/02/19 15:09:27;;;;;;;;;;;9.20;76.40;;;;;;6164756;23;19909;-90
2022/02/19 15:12:15;;;;;;;;;;;9.20;76.60;;;;;;6163991;23;19987;-92
2022/02/19 15:14:43;;;;;;;;;;;9.20;76.90;;;;;;6163513;23;19995;-89
2022/02/19 15:17:37;;;;;;;;;;;9.20;77.10;;;;;;6164049;23;19904;-89
2022/02/19 15:20:03;;;;;;;;;;;9.20;77.30;;;;;;6154390;23;19905;-92
2022/02/19 15:22:58;;;;;;;;;;;9.20;77.50;;;;;;6163237;23;19913;-92
2022/02/19 15:25:23;;;;;;;;;;;9.20;77.80;;;;;;6166909;23;19916;-90
2022/02/19 15:27:51;;;;;;;;;;;9.20;78.10;;;;;;6163427;23;19908;-93
2022/02/19 15:30:36;;;;;;;;;;;9.20;78.40;;;;;;6139498;23;20323;-92
2022/02/19 15:33:23;;;;;;;;;;;9.20;78.90;;;;;;6163687;23;20319;-92
2022/02/19 15:38:56;;;;;;;;;;;;;;;;;;;;;
2022/02/19 15:41:25;;;;;;;;;;;9.00;81.60;;;;;;6190122;23;19956;-91
2022/02/19 15:43:55;;;;;;;;;;;8.90;83.10;;;;;;6164126;23;19935;-91
2022/02/19 15:46:37;;;;;;;;;;;8.90;83.80;;;;;;6140408;23;19908;-91
2022/02/19 15:49:04;;;;;;;;;;;8.80;84.60;;;;;;6140271;23;19908;-91
2022/02/19 15:51:32;;;;;;;;;;;8.60;85.70;;;;;;6167525;23;19904;-92
2022/02/19 15:54:03;;;;;;;;;;;8.60;86.20;;;;;;6188733;23;19908;-91
2022/02/19 15:56:43;;;;;;;;;;;8.60;86.30;;;;;;6189827;23;19904;-91
2022/02/19 15:59:12;;;;;;;;;;;8.50;86.80;;;;;;6214674;23;19892;-95
2022/02/19 16:01:47;;;;;;;;;;;8.50;87.70;;;;;;6206316;23;19955;-92
2022/02/19 16:04:33;;;;;;;;;;;;;;;;;;;;;
2022/02/19 16:07:09;;;;;;;;;;;8.40;89.60;;;;;;6189918;23;19980;-93
2022/02/19 16:09:42;;;;;;;;;;;8.40;90.30;;;;;;6162810;23;19904;-93
2022/02/19 16:12:14;;;;;;;;;;;8.40;90.30;;;;;;6139462;23;20402;-93
2022/02/19 16:14:40;;;;;;;;;;;8.30;90.80;;;;;;6163920;23;19936;-92
2022/02/19 16:20:25;;;;;;;;;;;8.10;91.70;;;;;;6099419;23;19905;-92
2022/02/19 16:23:09;;;;;;;;;;;;;;;;;;;;;
2022/02/19 16:25:56;;;;;;;;;;;;;;;;;;;;;
2022/02/19 16:31:33;;;;;;;;;;;8.00;92.30;;;;;;6174162;23;19915;-91
2022/02/19 16:34:04;;;;;;;;;;;7.90;92.40;;;;;;6139741;23;19947;-91
2022/02/19 16:36:37;;;;;;;;;;;7.90;92.70;;;;;;6163734;23;19905;-91
2022/02/19 16:42:17;;;;;;;;;;;7.80;93.10;;;;;;6159464;23;19919;-90
2022/02/19 16:47:49;;;;;;;;;;;7.80;93.40;;;;;;6126957;23;19954;-90
2022/02/19 16:50:35;;;;;;;;;;;7.80;93.40;;;;;;6134374;23;19988;-91
2022/02/19 16:53:00;;;;;;;;;;;7.70;93.60;;;;;;6132949;23;19905;-93
2022/02/19 16:55:46;;;;;;;;;;;7.70;93.70;;;;;;6133388;23;19905;-92
2022/02/19 16:58:19;;;;;;;;;;;7.70;93.80;;;;;;6134033;23;19905;-90
2022/02/19 17:01:07;;;;;;;;;;;7.70;93.90;;;;;;6132968;23;19936;-90
2022/02/19 17:07:10;;;;;;;;;;;7.60;94.00;;;;;;6161695;23;19912;-92
2022/02/19 17:09:44;;;;;;;;;;;;;;;;;;;;;
2022/02/19 17:12:12;;;;;;;;;;;7.70;94.20;;;;;;6161284;23;19980;-90
2022/02/19 17:14:38;;;;;;;;;;;7.70;94.10;;;;;;6135288;23;19913;-92
2022/02/19 17:17:39;;;;;;;;;;;;;;;;;;;;;
2022/02/19 17:20:35;;;;;;;;;;;7.60;94.10;;;;;;6161280;23;19983;-91
2022/02/19 17:23:18;;;;;;;;;;;7.60;94.10;;;;;;6143557;23;20047;-91
2022/02/19 17:25:53;;;;;;;;;;;7.60;94.00;;;;;;6160362;23;19936;-90
2022/02/19 17:28:31;;;;;;;;;;;7.70;94.10;;;;;;6161206;23;19928;-92
2022/02/19 17:31:26;;;;;;;;;;;7.60;94.10;;;;;;6183837;23;19893;-93
2022/02/19 17:34:23;;;;;;;;;;;7.70;94.30;;;;;;6143073;23;19912;-93
2022/02/19 17:37:15;;;;;;;;;;;7.60;94.30;;;;;;6134298;23;19905;-92
2022/02/19 17:40:09;;;;;;;;;;;7.60;94.40;;;;;;6154090;23;20448;-91
2022/02/19 17:42:40;;;;;;;;;;;7.60;94.40;;;;;;6199527;23;19908;-91
2022/02/19 17:45:09;;;;;;;;;;;7.60;94.30;;;;;;6196038;23;19912;-91
2022/02/19 17:47:45;;;;;;;;;;;7.60;94.60;;;;;;6194545;23;19960;-91
2022/02/19 17:50:14;;;;;;;;;;;7.60;94.60;;;;;;6194997;23;20004;-92
2022/02/19 17:52:45;;;;;;;;;;;7.60;94.60;;;;;;6195471;23;19979;-92
2022/02/19 17:55:18;;;;;;;;;;;7.50;94.70;;;;;;6194220;23;19999;-92
2022/02/19 17:57:49;;;;;;;;;;;7.50;94.90;;;;;;6195292;23;19919;-89
2022/02/19 18:00:18;;;;;;;;;;;7.50;95.00;;;;;;6194847;23;19904;-91
2022/02/19 18:03:08;;;;;;;;;;;7.40;95.20;;;;;;6194750;23;19904;-89
2022/02/19 18:05:34;;;;;;;;;;;7.40;95.40;;;;;;6200819;23;19904;-94
2022/02/19 18:08:07;;;;;;;;;;;7.40;95.50;;;;;;6200711;23;19904;-93
2022/02/19 18:10:48;;;;;;;;;;;;;;;;;;;;;
2022/02/19 18:13:25;;;;;;;;;;;7.30;95.70;;;;;;6226922;23;19935;-93
2022/02/19 18:15:50;;;;;;;;;;;7.30;95.70;;;;;;6177625;23;19912;-92
2022/02/19 18:18:21;;;;;;;;;;;7.30;95.80;;;;;;6199882;23;20326;-93
2022/02/19 18:20:50;;;;;;;;;;;7.30;95.90;;;;;;6201348;23;20231;-90
2022/02/19 18:23:29;;;;;;;;;;;7.20;96.10;;;;;;6226863;23;19911;-93
2022/02/19 18:26:02;;;;;;;;;;;7.20;96.00;;;;;;6200448;23;19911;-92
2022/02/19 18:28:33;;;;;;;;;;;7.20;96.10;;;;;;6227581;23;19903;-95
2022/02/19 18:31:02;;;;;;;;;;;7.20;96.20;;;;;;6226846;23;19931;-93
2022/02/19 18:33:28;;;;;;;;;;;7.10;96.30;;;;;;6201321;23;19962;-94
2022/02/19 18:35:54;;;;;;;;;;;7.00;96.50;;;;;;6201470;23;19904;-94
2022/02/19 18:38:20;;;;;;;;;;;7.00;96.60;;;;;;6195603;23;19916;-92
2022/02/19 18:40:49;;;;;;;;;;;7.00;96.60;;;;;;6195125;23;19912;-92
2022/02/19 18:43:18;;;;;;;;;;;6.90;96.70;;;;;;6196849;23;19932;-92
2022/02/19 18:45:45;;;;;;;;;;;6.90;96.70;;;;;;6171331;23;19909;-93
2022/02/19 18:48:13;;;;;;;;;;;6.90;96.70;;;;;;6197438;23;19905;-93
2022/02/19 18:50:44;;;;;;;;;;;6.90;96.70;;;;;;6195758;23;19908;-91
2022/02/19 18:53:26;;;;;;;;;;;6.80;96.80;;;;;;6197762;23;19905;-93
2022/02/19 18:55:55;;;;;;;;;;;6.80;96.90;;;;;;6214889;23;19899;-94
2022/02/19 18:58:30;;;;;;;;;;;6.80;97.10;;;;;;6215163;23;19916;-92
2022/02/19 19:00:57;;;;;;;;;;;6.80;97.20;;;;;;6214828;23;19899;-93
2022/02/19 19:03:25;;;;;;;;;;;6.80;97.30;;;;;;6204105;23;19958;-93
2022/02/19 19:05:59;;;;;;;;;;;6.80;97.30;;;;;;6195808;23;20006;-91
2022/02/19 19:08:33;;;;;;;;;;;6.80;97.40;;;;;;6195552;23;20242;-92
2022/02/19 19:11:05;;;;;;;;;;;6.70;97.50;;;;;;6195742;23;19908;-92
2022/02/19 19:13:31;;;;;;;;;;;6.70;97.50;;;;;;6195264;23;19939;-91